createdAt,value
2023-05-04T00:02:02.350Z,48.65
2023-05-04T00:07:07.275Z,49.02
2023-05-04T00:12:10.829Z,49.79
2023-05-04T00:17:14.264Z,48.66
2023-05-04T00:22:19.142Z,48.51
2023-05-04T00:27:22.275Z,48.83
2023-05-04T00:32:25.916Z,48.85
2023-05-04T00:37:30.830Z,49.37
2023-05-04T00:42:34.093Z,48.65
2023-05-04T00:47:37.791Z,49.19
2023-05-04T00:52:45.209Z,50.59
2023-05-04T00:57:50.493Z,51.08
2023-05-04T01:02:54.115Z,51.07
2023-05-04T01:08:03.449Z,51.01
2023-05-04T01:13:11.111Z,51.79
2023-05-04T01:18:14.775Z,51.87
2023-05-04T01:23:19.724Z,52.60
2023-05-04T01:28:28.552Z,53.46
2023-05-04T01:33:33.421Z,53.17
2023-05-04T01:38:38.025Z,51.65
2023-05-04T01:43:41.770Z,52.73
2023-05-04T01:48:45.199Z,53.69
2023-05-04T01:53:50.110Z,53.69
2023-05-04T01:58:53.258Z,55.44
2023-05-04T02:03:56.873Z,53.04
2023-05-04T02:09:01.921Z,53.13
2023-05-04T02:14:05.608Z,52.60
2023-05-04T02:19:09.200Z,52.54
2023-05-04T02:24:14.410Z,52.81
2023-05-04T02:29:17.988Z,52.81
2023-05-04T02:34:21.708Z,52.94
2023-05-04T02:39:26.693Z,52.70
2023-05-04T02:44:29.867Z,52.25
2023-05-04T02:49:33.340Z,51.86
2023-05-04T02:54:39.298Z,51.97
2023-05-04T02:59:42.787Z,51.61
2023-05-04T03:04:46.268Z,51.43
2023-05-04T03:09:51.240Z,50.27
2023-05-04T03:14:54.455Z,49.24
2023-05-04T03:19:57.902Z,49.30
2023-05-04T03:25:02.884Z,49.09
2023-05-04T03:30:08.816Z,48.97
2023-05-04T03:35:12.943Z,48.06
2023-05-04T03:40:22.479Z,47.27
2023-05-04T03:45:28.587Z,45.79
2023-05-04T03:50:32.141Z,33.43
2023-05-04T03:55:37.320Z,26.15
2023-05-04T04:00:40.942Z,23.00
2023-05-04T04:05:44.425Z,20.44
2023-05-04T04:10:49.290Z,18.34
2023-05-04T04:15:52.861Z,17.15
2023-05-04T04:20:56.481Z,16.60
2023-05-04T04:26:01.885Z,15.73
2023-05-04T04:31:05.783Z,14.09
2023-05-04T04:36:10.631Z,13.15
2023-05-04T04:41:15.969Z,11.89
2023-05-04T04:46:19.498Z,11.33
2023-05-04T04:51:23.173Z,11.15
2023-05-04T04:56:28.204Z,10.83
2023-05-04T05:01:31.805Z,9.46
2023-05-04T05:06:35.478Z,8.97
2023-05-04T05:11:40.406Z,8.19
2023-05-04T05:16:43.915Z,7.59
2023-05-04T05:21:48.003Z,8.10
2023-05-04T05:26:53.787Z,8.04
2023-05-04T05:31:57.459Z,7.80
2023-05-04T05:37:01.137Z,7.59
2023-05-04T05:42:06.765Z,7.27
2023-05-04T05:47:10.238Z,6.92
2023-05-04T05:52:13.723Z,6.90
2023-05-04T05:57:18.597Z,6.30
2023-05-04T06:02:22.208Z,5.90
2023-05-04T06:07:26.191Z,6.07
2023-05-04T06:12:31.289Z,5.80
2023-05-04T06:17:35.036Z,5.70
2023-05-04T06:22:38.582Z,6.35
2023-05-04T06:27:43.504Z,5.89
2023-05-04T06:32:47.218Z,5.88
2023-05-04T06:43:01.173Z,5.08
2023-05-04T06:48:05.524Z,5.08
2023-05-04T06:53:10.369Z,5.51
2023-05-04T06:58:15.393Z,6.36
2023-05-04T07:03:19.060Z,6.10
2023-05-04T07:08:22.575Z,5.76
2023-05-04T07:13:27.543Z,7.15
2023-05-04T07:18:31.441Z,7.12
2023-05-04T07:23:34.921Z,6.30
2023-05-04T07:28:43.954Z,5.75
2023-05-04T07:33:47.557Z,6.53
2023-05-04T07:38:51.517Z,6.02
2023-05-04T07:43:56.628Z,6.38
2023-05-04T07:49:00.091Z,6.70
2023-05-04T07:54:03.546Z,7.17
2023-05-04T07:59:08.443Z,7.62
2023-05-04T08:04:12.022Z,7.66
2023-05-04T08:09:15.512Z,7.52
2023-05-04T08:14:20.409Z,7.59
2023-05-04T08:19:23.911Z,9.63
2023-05-04T08:24:27.416Z,9.98
2023-05-04T08:29:32.326Z,10.81
2023-05-04T08:34:36.681Z,12.70
2023-05-04T08:39:42.081Z,12.71
2023-05-04T08:44:47.276Z,12.72
2023-05-04T08:49:50.980Z,13.15
2023-05-04T08:54:56.062Z,13.56
2023-05-04T09:00:02.011Z,14.35
2023-05-04T09:05:09.557Z,14.79
2023-05-04T09:10:13.251Z,15.45
2023-05-04T09:15:19.262Z,14.52
2023-05-04T09:20:22.981Z,14.36
2023-05-04T09:25:26.513Z,14.79
2023-05-04T09:30:32.075Z,15.00
2023-05-04T09:35:35.533Z,15.74
2023-05-04T09:40:41.549Z,15.05
2023-05-04T09:45:48.345Z,14.39
2023-05-04T09:50:56.263Z,14.06
2023-05-04T09:56:11.445Z,15.05
2023-05-04T10:01:17.106Z,16.11
2023-05-04T10:06:22.600Z,16.23
2023-05-04T10:11:27.513Z,15.85
2023-05-04T10:16:45.748Z,16.18
2023-05-04T10:22:02.985Z,16.35
2023-05-04T10:27:11.555Z,15.81
2023-05-04T10:32:23.758Z,16.37
2023-05-04T10:37:27.414Z,16.89
2023-05-04T10:42:42.010Z,17.50
2023-05-04T10:47:46.623Z,16.42
2023-05-04T10:53:16.955Z,16.99
2023-05-04T10:58:29.820Z,17.34
2023-05-04T11:03:42.241Z,17.00
2023-05-04T11:08:48.245Z,17.17
2023-05-04T11:13:52.006Z,17.52
2023-05-04T11:18:56.899Z,17.66
2023-05-04T11:24:02.636Z,17.78
2023-05-04T11:29:14.124Z,18.05
2023-05-04T11:34:22.356Z,17.51
2023-05-04T11:39:27.400Z,16.89
2023-05-04T11:44:31.471Z,16.52
2023-05-04T11:49:36.567Z,16.63
2023-05-04T11:54:40.138Z,16.84
2023-05-04T11:59:50.287Z,17.48
2023-05-04T12:04:55.641Z,17.87
2023-05-04T12:09:59.105Z,17.51
2023-05-04T12:15:02.559Z,17.45
2023-05-04T12:20:10.368Z,16.59
2023-05-04T12:25:13.993Z,16.46
2023-05-04T12:30:18.123Z,16.60
2023-05-04T12:35:23.233Z,17.13
2023-05-04T12:40:28.753Z,17.13
2023-05-04T12:45:32.580Z,17.62
2023-05-04T12:50:37.649Z,17.65
2023-05-04T12:55:41.379Z,17.53
2023-05-04T13:00:46.118Z,17.39
2023-05-04T13:05:51.414Z,16.88
2023-05-04T13:10:55.166Z,17.24
2023-05-04T13:15:59.052Z,17.30
2023-05-04T13:21:04.226Z,17.12
2023-05-04T13:26:07.736Z,16.75
2023-05-04T13:31:11.487Z,17.24
2023-05-04T13:36:17.286Z,16.94
2023-05-04T13:41:20.810Z,16.29
2023-05-04T13:46:24.436Z,17.05
2023-05-04T13:51:29.378Z,16.92
2023-05-04T13:56:32.890Z,16.82
2023-05-04T14:01:36.421Z,16.68
2023-05-04T14:06:41.320Z,17.11
2023-05-04T14:11:45.017Z,17.53
2023-05-04T14:16:48.532Z,17.74
2023-05-04T14:21:53.518Z,18.07
2023-05-04T14:26:57.102Z,18.11
2023-05-04T14:32:00.679Z,18.71
2023-05-04T14:37:05.654Z,18.87
2023-05-04T14:42:09.460Z,19.01
2023-05-04T14:47:13.223Z,19.22
2023-05-04T14:52:18.415Z,19.37
2023-05-04T14:57:21.890Z,19.59
2023-05-04T15:02:25.545Z,20.04
2023-05-04T15:07:30.514Z,19.89
2023-05-04T15:12:34.090Z,20.60
2023-05-04T15:17:37.666Z,20.32
2023-05-04T15:22:42.891Z,20.38
2023-05-04T15:27:46.494Z,20.61
2023-05-04T15:32:49.975Z,20.83
2023-05-04T15:37:54.927Z,21.04
2023-05-04T15:42:58.498Z,20.89
2023-05-04T15:48:02.076Z,21.59
2023-05-04T15:53:07.055Z,21.37
2023-05-04T15:58:10.769Z,20.83
2023-05-04T16:03:15.424Z,21.21
2023-05-04T16:08:20.392Z,21.05
2023-05-04T16:13:23.970Z,21.26
2023-05-04T16:18:27.536Z,21.05
2023-05-04T16:23:32.496Z,21.71
2023-05-04T16:28:36.948Z,21.78
2023-05-04T16:33:41.520Z,21.90
2023-05-04T16:38:46.420Z,22.12
2023-05-04T16:43:50.261Z,21.94
2023-05-04T16:48:54.747Z,22.83
2023-05-04T16:53:59.467Z,22.26
2023-05-04T16:59:02.862Z,23.13
2023-05-04T17:04:06.430Z,23.50
2023-05-04T17:09:11.359Z,23.61
2023-05-04T17:14:14.979Z,23.62
2023-05-04T17:19:18.451Z,23.91
2023-05-04T17:24:23.313Z,24.06
2023-05-04T17:29:26.858Z,24.68
2023-05-04T17:34:30.302Z,25.38
2023-05-04T17:39:35.249Z,25.48
2023-05-04T17:44:38.745Z,26.17
2023-05-04T17:49:42.193Z,26.17
2023-05-04T17:54:47.126Z,26.62
2023-05-04T17:59:50.648Z,26.44
2023-05-04T18:04:54.108Z,27.59
2023-05-04T18:09:59.028Z,27.64
2023-05-04T18:15:02.583Z,27.78
2023-05-04T18:20:10.334Z,28.44
2023-05-04T18:25:16.370Z,30.79
2023-05-04T18:30:20.206Z,29.72
2023-05-04T18:35:23.718Z,29.73
2023-05-04T18:40:28.594Z,30.05
2023-05-04T18:45:32.183Z,29.71
2023-05-04T18:50:36.200Z,29.93
2023-05-04T18:55:41.108Z,29.94
2023-05-04T19:00:46.474Z,30.23
2023-05-04T19:05:50.066Z,30.91
2023-05-04T19:10:59.241Z,31.60
2023-05-04T19:16:02.806Z,32.42
2023-05-04T19:21:06.920Z,33.00
2023-05-04T19:26:11.794Z,33.64
2023-05-04T19:31:15.755Z,33.95
2023-05-04T19:36:19.274Z,34.43
2023-05-04T19:41:24.178Z,35.48
2023-05-04T19:46:27.751Z,34.90
2023-05-04T19:51:31.578Z,35.82
2023-05-04T19:56:36.547Z,36.35
2023-05-04T20:01:39.997Z,37.23
2023-05-04T20:06:43.440Z,37.80
2023-05-04T20:11:48.480Z,37.97
2023-05-04T20:16:52.728Z,37.68
2023-05-04T20:21:56.515Z,38.49
2023-05-04T20:27:01.467Z,38.88
2023-05-04T20:32:05.832Z,38.54
2023-05-04T20:37:09.625Z,39.21
2023-05-04T20:42:14.689Z,38.87
2023-05-04T20:47:18.631Z,39.38
2023-05-04T20:52:22.272Z,39.43
2023-05-04T20:57:27.261Z,39.53
2023-05-04T21:02:31.349Z,39.73
2023-05-04T21:07:34.934Z,40.06
2023-05-04T21:12:39.880Z,41.38
2023-05-04T21:17:43.396Z,40.68
2023-05-04T21:22:46.966Z,41.04
2023-05-04T21:27:51.962Z,41.43
2023-05-04T21:32:55.491Z,41.46
2023-05-04T21:37:59.870Z,42.36
2023-05-04T21:43:04.726Z,42.07
2023-05-04T21:48:08.448Z,42.46
2023-05-04T21:53:11.956Z,42.75
2023-05-04T21:58:17.384Z,43.09
2023-05-04T22:03:21.122Z,44.51
2023-05-04T22:08:24.836Z,44.21
2023-05-04T22:13:29.948Z,44.43
2023-05-04T22:18:33.441Z,43.40
2023-05-04T22:23:37.312Z,44.52
2023-05-04T22:28:42.179Z,44.41
2023-05-04T22:33:45.306Z,43.40
2023-05-04T22:38:48.679Z,45.17
2023-05-04T22:43:53.488Z,45.66
2023-05-04T22:48:56.956Z,45.60
2023-05-04T22:54:00.368Z,46.22
2023-05-04T22:59:06.411Z,45.35
2023-05-04T23:04:12.767Z,46.10
2023-05-04T23:09:16.634Z,46.61
2023-05-04T23:14:21.851Z,47.27
2023-05-04T23:19:25.305Z,47.68
2023-05-04T23:24:28.774Z,48.04
2023-05-04T23:29:33.700Z,48.92
2023-05-04T23:34:36.804Z,47.17
2023-05-04T23:39:40.294Z,48.75
2023-05-04T23:44:45.101Z,48.78
2023-05-04T23:49:48.608Z,48.54
2023-05-04T23:54:54.723Z,48.91
2023-05-04T23:59:59.505Z,49.04
